Time;durP1;ratioP1;P1;durP2;ratioP2;P2;SDS_P1;SDS_P2;PMS_P1;PMS_P2;Temp;Humidity;BMP_temperature;BMP_pressure;BME280_temperature;BME280_humidity;BME280_pressure;Samples;Min_cycle;Max_cycle;Signal;HPM_P1;HPM_P2
2023/05/14 00:02:20;;;;;;;19.38;13.52;;;9.30;99.90;;;-144.05;84.64;56882.81;5010414;28;20046;-77
2023/05/14 00:04:46;;;;;;;17.23;13.18;;;9.30;99.90;;;-144.05;84.66;56904.06;5008785;28;20031;-76
2023/05/14 00:07:12;;;;;;;17.63;12.18;;;9.30;99.90;;;-144.05;84.54;56889.19;5008299;28;20506;-78
2023/05/14 00:09:38;;;;;;;17.17;13.18;;;9.20;99.90;;;-144.05;84.70;56916.81;5005748;28;20038;-76
2023/05/14 00:12:04;;;;;;;16.70;12.80;;;9.20;99.90;;;-144.05;84.61;56925.28;4997781;28;20157;-78
2023/05/14 00:14:30;;;;;;;16.13;12.63;;;9.10;99.90;;;-144.05;84.77;56918.94;5006500;28;20069;-76
2023/05/14 00:16:58;;;;;;;17.15;14.23;;;9.10;99.90;;;-144.05;84.92;56921.06;5014918;28;20045;-76
2023/05/14 00:19:25;;;;;;;20.60;14.82;;;9.10;99.90;;;-144.05;85.47;56908.31;5015627;28;20026;-77
2023/05/14 00:21:50;;;;;;;18.75;14.07;;;9.10;99.90;;;-144.05;85.93;56914.69;5013823;28;20072;-77
2023/05/14 00:24:16;;;;;;;18.23;14.18;;;9.20;99.90;;;-144.05;85.52;56878.56;5008851;28;20457;-76
2023/05/14 00:26:42;;;;;;;18.55;13.13;;;9.20;99.90;;;-144.05;85.41;56895.56;5006495;28;20504;-77
2023/05/14 00:29:08;;;;;;;17.55;14.30;;;9.20;99.90;;;-144.05;85.56;56906.19;5006697;28;20038;-78
2023/05/14 00:31:34;;;;;;;21.20;14.77;;;9.20;99.90;;;-144.05;85.66;56929.53;5001930;28;20030;-78
2023/05/14 00:34:00;;;;;;;20.13;15.32;;;9.20;99.90;;;-144.05;85.27;56916.81;5001884;28;20034;-78
2023/05/14 00:36:26;;;;;;;17.42;13.98;;;9.20;99.90;;;-144.05;85.62;56921.06;5002034;28;20077;-79
2023/05/14 00:38:52;;;;;;;19.02;13.90;;;9.10;99.90;;;-144.05;85.34;56908.31;5001557;28;20041;-76
2023/05/14 00:41:18;;;;;;;17.90;13.10;;;9.10;99.90;;;-144.05;85.31;56929.53;5001908;28;20034;-77
2023/05/14 00:43:44;;;;;;;14.90;11.70;;;9.00;99.90;;;-144.05;85.37;56891.31;5002095;28;20065;-78
2023/05/14 00:46:11;;;;;;;18.35;13.70;;;9.00;99.90;;;-144.05;85.17;56884.94;5000524;28;20041;-77
2023/05/14 00:48:37;;;;;;;17.13;12.50;;;8.90;99.90;;;-144.05;85.29;56904.06;4981404;28;20367;-77
2023/05/14 00:51:04;;;;;;;21.20;13.63;;;8.80;99.90;;;-144.05;85.61;56904.06;4997356;28;20027;-78
2023/05/14 00:53:30;;;;;;;21.90;15.98;;;8.70;99.90;;;-144.05;86.14;56912.56;4997746;28;20026;-77
2023/05/14 00:55:57;;;;;;;18.42;14.55;;;8.60;99.90;;;-144.05;86.55;56895.56;4997723;28;20037;-77
2023/05/14 00:58:24;;;;;;;20.70;15.48;;;8.80;99.90;;;-144.05;86.07;56925.28;4999308;28;20023;-78
2023/05/14 01:00:50;;;;;;;22.05;16.98;;;8.90;99.90;;;-144.05;86.26;56904.06;5001830;28;20030;-76
2023/05/14 01:03:16;;;;;;;20.45;15.43;;;9.00;99.90;;;-144.05;86.02;56893.44;5002795;28;20038;-77
2023/05/14 01:06:13;;;;;;;22.38;16.20;;;9.10;99.90;;;-144.05;86.26;56891.31;5002953;28;20089;-77
2023/05/14 01:09:16;;;;;;;17.45;13.15;;;9.10;99.90;;;-144.05;85.66;56912.56;5014156;28;20098;-77
2023/05/14 01:12:50;;;;;;;18.50;12.73;;;9.00;99.90;;;-144.05;85.87;56901.94;5001473;28;20085;-76
2023/05/14 01:15:27;;;;;;;17.88;14.10;;;8.90;99.90;;;-144.05;85.92;56910.44;4980807;28;20042;-79
2023/05/14 01:18:03;;;;;;;17.65;13.60;;;8.80;99.90;;;-144.05;85.82;56904.06;5000869;28;20430;-79
2023/05/14 01:20:29;;;;;;;18.30;12.48;;;8.70;99.90;;;-144.05;86.03;56897.69;5000413;28;20056;-78
2023/05/14 01:22:55;;;;;;;15.77;12.60;;;8.70;99.90;;;-144.05;85.94;56918.94;5000429;28;20115;-78
2023/05/14 01:25:21;;;;;;;19.13;14.07;;;8.60;99.90;;;-144.05;85.94;56927.41;5000013;28;20055;-79
2023/05/14 01:27:55;;;;;;;18.92;13.23;;;8.50;99.90;;;-144.05;86.00;56925.28;4981230;28;20113;-78
2023/05/14 01:31:06;;;;;;;16.80;12.73;;;8.60;99.90;;;-144.05;85.75;56889.19;5000475;28;20030;-78
2023/05/14 01:33:36;;;;;;;17.40;13.00;;;8.50;99.90;;;-144.05;85.62;56914.69;4996752;28;20501;-78
2023/05/14 01:36:03;;;;;;;16.10;12.05;;;8.40;99.90;;;-144.05;85.88;56899.81;4997668;28;20047;-78
2023/05/14 01:38:32;;;;;;;15.57;12.43;;;8.30;99.90;;;-144.05;85.61;56931.66;4998444;28;20057;-76
2023/05/14 01:41:00;;;;;;;20.80;13.07;;;8.30;99.90;;;-144.05;85.75;56901.94;5000432;28;20034;-79
2023/05/14 01:43:28;;;;;;;19.45;13.88;;;8.20;99.90;;;-144.05;85.83;56904.06;4998513;28;20027;-77
2023/05/14 01:45:54;;;;;;;20.15;13.95;;;8.30;99.90;;;-144.05;85.86;56931.66;4999407;28;20089;-78
2023/05/14 01:48:20;;;;;;;19.88;13.85;;;8.20;99.90;;;-144.05;85.87;56904.06;5000860;28;20034;-78
2023/05/14 01:50:46;;;;;;;17.75;13.98;;;8.10;99.90;;;-144.05;86.07;56921.06;4998985;28;20054;-79
2023/05/14 01:53:12;;;;;;;18.05;14.57;;;8.20;99.90;;;-144.05;85.98;56910.44;5000509;28;20076;-79
2023/05/14 01:55:38;;;;;;;18.75;14.48;;;8.20;99.90;;;-144.05;85.91;56891.31;4982101;28;20587;-78
2023/05/14 01:58:04;;;;;;;21.05;15.23;;;8.20;99.90;;;-144.05;85.91;56923.19;4997976;28;20035;-79
2023/05/14 02:00:30;;;;;;;27.02;14.77;;;8.10;99.90;;;-144.05;85.91;56938.03;5000142;28;20027;-78
2023/05/14 02:02:56;;;;;;;17.70;14.45;;;8.10;99.90;;;-144.05;85.82;56899.81;4997694;28;20413;-78
2023/05/14 02:05:22;;;;;;;17.77;14.60;;;8.20;99.90;;;-144.05;85.91;56923.19;5005111;28;20053;-76
2023/05/14 02:07:47;;;;;;;21.00;16.40;;;8.20;99.90;;;-144.05;85.93;56918.94;5004514;28;20031;-76
2023/05/14 02:10:13;;;;;;;23.85;16.38;;;8.10;99.90;;;-144.05;85.96;56912.56;4999479;28;20026;-77
2023/05/14 02:12:39;;;;;;;17.17;14.00;;;8.10;99.90;;;-144.05;86.04;56918.94;4999279;28;20031;-78
2023/05/14 02:15:07;;;;;;;22.80;15.45;;;8.10;99.90;;;-144.05;85.94;56923.19;5002120;28;20034;-78
2023/05/14 02:17:33;;;;;;;19.80;14.40;;;8.10;99.90;;;-144.05;85.85;56895.56;5001617;28;20378;-79
2023/05/14 02:19:59;;;;;;;20.85;14.93;;;8.10;99.90;;;-144.05;85.94;56908.31;4985111;28;20030;-78
2023/05/14 02:22:25;;;;;;;17.83;14.07;;;8.10;99.90;;;-144.05;86.01;56887.06;5003082;28;20038;-78
2023/05/14 02:24:51;;;;;;;21.48;14.18;;;8.10;99.90;;;-144.05;85.86;56931.66;5002075;28;20478;-76
2023/05/14 02:27:17;;;;;;;20.77;15.68;;;8.00;99.90;;;-144.05;86.15;56916.81;5003681;28;20053;-77
2023/05/14 02:29:43;;;;;;;23.02;16.08;;;8.00;99.90;;;-144.05;85.99;56912.56;5002367;28;20508;-77
2023/05/14 02:32:09;;;;;;;16.35;14.00;;;8.00;99.90;;;-144.05;85.77;56893.44;4985744;28;20030;-79
2023/05/14 02:34:35;;;;;;;20.08;15.10;;;7.90;99.90;;;-144.05;85.78;56916.81;4985436;28;20121;-79
2023/05/14 02:37:01;;;;;;;23.10;15.85;;;7.90;99.90;;;-144.05;86.30;56918.94;5003553;28;20041;-77
2023/05/14 02:39:27;;;;;;;16.85;12.70;;;7.90;99.90;;;-144.05;86.02;56910.44;5002657;28;20030;-76
2023/05/14 02:41:53;;;;;;;19.40;15.02;;;7.80;99.90;;;-144.05;85.90;56916.81;4985294;28;20038;-78
2023/05/14 02:44:19;;;;;;;18.90;14.90;;;7.70;99.90;;;-144.05;86.50;56895.56;5003196;28;20018;-76
2023/05/14 02:46:46;;;;;;;21.25;16.15;;;7.70;99.90;;;-144.05;86.51;56935.91;5002445;28;20049;-78
2023/05/14 02:49:12;;;;;;;20.13;16.10;;;7.80;99.90;;;-144.05;86.27;56897.69;5003352;28;20058;-79
2023/05/14 02:51:38;;;;;;;21.13;15.82;;;7.80;99.90;;;-144.05;86.40;56901.94;5001394;28;20034;-78
2023/05/14 02:54:04;;;;;;;17.95;13.90;;;7.80;99.90;;;-144.05;86.04;56931.66;5002530;28;20038;-79
2023/05/14 02:56:30;;;;;;;19.83;13.77;;;7.70;99.90;;;-144.05;85.84;56899.81;5000758;28;20030;-80
2023/05/14 02:58:56;;;;;;;18.23;14.15;;;7.60;99.90;;;-144.05;86.19;56927.41;5000345;28;20037;-79
2023/05/14 03:01:22;;;;;;;18.90;14.25;;;7.60;99.90;;;-144.05;86.07;56908.31;5000431;28;20030;-80
2023/05/14 03:03:48;;;;;;;19.73;13.55;;;7.60;99.90;;;-144.05;86.15;56901.94;5002748;28;20042;-78
2023/05/14 03:06:14;;;;;;;19.05;14.93;;;7.60;99.90;;;-144.05;86.34;56908.31;5001615;28;20074;-78
2023/05/14 03:08:40;;;;;;;23.13;16.60;;;7.60;99.90;;;-144.05;86.39;56927.41;4997280;28;20026;-77
2023/05/14 03:11:06;;;;;;;18.50;15.05;;;7.70;99.90;;;-144.05;86.32;56916.81;4980501;28;20023;-78
2023/05/14 03:13:33;;;;;;;21.42;15.88;;;7.70;99.90;;;-144.05;86.40;56914.69;4999085;28;20046;-78
2023/05/14 03:15:59;;;;;;;20.70;15.82;;;7.70;99.90;;;-144.05;86.69;56908.31;4996613;28;20041;-78
2023/05/14 03:18:27;;;;;;;19.45;14.68;;;7.80;99.90;;;-144.05;86.86;56912.56;4998444;28;20030;-78
2023/05/14 03:20:52;;;;;;;21.13;15.50;;;7.90;99.90;;;-144.05;86.59;56921.06;4998309;28;20041;-78
2023/05/14 03:23:18;;;;;;;19.95;15.63;;;7.90;99.90;;;-144.05;86.32;56912.56;4998272;28;20043;-78
2023/05/14 03:25:44;;;;;;;17.60;14.00;;;7.90;99.90;;;-144.05;86.30;56923.19;5000750;28;20053;-79
2023/05/14 03:28:10;;;;;;;16.85;13.70;;;7.90;99.90;;;-144.05;86.33;56925.28;5002429;28;20026;-76
2023/05/14 03:30:36;;;;;;;21.95;16.27;;;7.80;99.90;;;-144.05;86.81;56910.44;4997368;28;20053;-77
2023/05/14 03:33:03;;;;;;;21.27;15.65;;;7.90;99.90;;;-144.05;86.83;56906.19;4998087;28;20026;-79
2023/05/14 03:35:28;;;;;;;18.70;15.25;;;8.00;99.90;;;-144.05;86.79;56921.06;5001078;28;20085;-77
2023/05/14 03:37:57;;;;;;;23.63;16.10;;;8.00;99.90;;;-144.05;86.99;56912.56;5000803;28;20035;-78
2023/05/14 03:40:22;;;;;;;18.75;15.45;;;8.00;99.90;;;-144.05;86.97;56904.06;5000915;28;20095;-79
2023/05/14 03:42:48;;;;;;;19.55;14.52;;;8.10;99.90;;;-144.05;86.87;56912.56;4983525;28;20071;-78
2023/05/14 03:45:14;;;;;;;21.42;15.07;;;8.10;99.90;;;-144.05;86.92;56904.06;4999578;28;20022;-77
2023/05/14 03:47:40;;;;;;;16.88;13.10;;;8.10;99.90;;;-144.05;86.65;56904.06;4997839;28;20116;-78
2023/05/14 03:50:07;;;;;;;18.48;13.93;;;8.10;99.90;;;-144.05;86.73;56904.06;4997496;28;20486;-78
2023/05/14 03:52:33;;;;;;;21.50;15.05;;;8.10;99.90;;;-144.05;86.71;56904.06;4997845;28;20478;-79
2023/05/14 03:54:59;;;;;;;16.67;12.63;;;8.10;99.90;;;-144.05;86.87;56921.06;4997428;28;20026;-78
2023/05/14 03:57:25;;;;;;;16.60;13.40;;;8.10;99.90;;;-144.05;86.70;56895.56;4996548;28;20034;-78
2023/05/14 03:59:50;;;;;;;17.90;13.75;;;8.10;99.90;;;-144.05;86.82;56916.81;4997439;28;20038;-75
2023/05/14 04:02:16;;;;;;;18.85;14.18;;;8.00;99.90;;;-144.05;87.09;56904.06;4995822;28;20447;-78
2023/05/14 04:04:42;;;;;;;18.67;14.55;;;8.00;99.90;;;-144.05;86.89;56908.31;4996940;28;20030;-78
2023/05/14 04:07:08;;;;;;;17.75;14.48;;;8.10;99.90;;;-144.05;87.00;56895.56;4997511;28;20034;-79
2023/05/14 04:09:34;;;;;;;18.95;15.60;;;8.10;99.90;;;-144.05;86.83;56895.56;4979234;28;20026;-78
2023/05/14 04:11:59;;;;;;;17.65;14.40;;;8.20;99.90;;;-144.05;86.86;56918.94;4997516;28;20490;-78
2023/05/14 04:14:25;;;;;;;20.40;15.18;;;8.20;99.90;;;-144.05;86.48;56908.31;4997237;28;20034;-78
2023/05/14 04:16:51;;;;;;;17.58;13.38;;;8.20;99.90;;;-144.05;86.56;56912.56;4997410;28;20093;-77
2023/05/14 04:19:17;;;;;;;16.85;13.05;;;8.20;99.90;;;-144.05;86.64;56912.56;4997853;28;20026;-77
2023/05/14 04:21:43;;;;;;;20.92;14.90;;;8.20;99.90;;;-144.05;86.37;56925.28;4999562;28;20030;-78
2023/05/14 04:24:08;;;;;;;20.90;14.02;;;8.20;99.90;;;-144.05;86.34;56895.56;5029682;23;20421;-77
2023/05/14 04:26:34;;;;;;;19.63;12.98;;;8.20;99.90;;;-144.05;86.56;56914.69;5017690;28;20026;-79
2023/05/14 04:29:01;;;;;;;19.67;12.75;;;8.20;99.90;;;-144.05;86.53;56901.94;5018694;28;20038;-79
2023/05/14 04:31:29;;;;;;;17.70;13.30;;;8.30;99.90;;;-144.05;86.23;56927.41;5027797;28;20044;-77
2023/05/14 04:33:55;;;;;;;14.93;12.23;;;8.30;99.90;;;-144.05;86.15;56906.19;5008902;28;20073;-79
2023/05/14 04:36:20;;;;;;;16.08;12.20;;;8.20;99.90;;;-144.05;86.31;56931.66;4990885;28;20042;-79
2023/05/14 04:38:46;;;;;;;18.30;13.18;;;8.20;99.90;;;-144.05;86.21;56895.56;5006729;28;20494;-80
2023/05/14 04:41:12;;;;;;;16.95;12.73;;;8.20;99.90;;;-144.05;86.41;56925.28;4988707;28;20027;-80
2023/05/14 04:43:39;;;;;;;16.33;12.85;;;8.20;99.90;;;-144.05;86.27;56912.56;4984728;28;20026;-79
2023/05/14 04:46:05;;;;;;;18.00;13.63;;;8.30;99.90;;;-144.05;86.39;56901.94;4978317;28;20109;-79
2023/05/14 04:48:31;;;;;;;17.30;14.18;;;8.40;99.90;;;-144.05;86.17;56929.53;4992587;28;20113;-79
2023/05/14 04:50:57;;;;;;;15.88;12.30;;;8.40;99.90;;;-144.05;86.14;56908.31;4974864;28;20019;-79
2023/05/14 04:53:23;;;;;;;15.45;13.30;;;8.50;99.90;;;-144.05;86.28;56884.94;4974781;28;20038;-79
2023/05/14 04:55:49;;;;;;;18.73;14.98;;;8.50;99.90;;;-144.05;86.18;56906.19;4993014;28;20087;-80
2023/05/14 04:58:14;;;;;;;19.27;15.60;;;8.60;99.90;;;-144.05;86.60;56882.81;4993453;28;20027;-79
2023/05/14 05:00:40;;;;;;;19.75;15.35;;;8.70;99.90;;;-144.05;86.26;56910.44;4974968;28;20566;-79
2023/05/14 05:03:06;;;;;;;16.25;13.95;;;8.90;99.90;;;-144.05;86.32;56887.06;4974509;28;20030;-78
2023/05/14 05:05:32;;;;;;;18.95;14.45;;;9.10;99.90;;;-144.05;86.64;56916.81;4992212;28;20030;-79
2023/05/14 05:07:58;;;;;;;19.20;14.98;;;9.40;99.90;;;-144.05;85.85;56891.31;4974593;28;20034;-81
2023/05/14 05:10:24;;;;;;;20.60;15.50;;;9.70;99.90;;;-144.05;85.85;56904.06;4974824;28;20054;-79
2023/05/14 05:12:49;;;;;;;15.82;12.23;;;9.90;99.90;;;-144.05;85.75;56884.94;4974636;28;20486;-79
2023/05/14 05:15:15;;;;;;;13.75;12.10;;;10.20;99.90;;;-144.05;85.37;56878.56;4992337;28;20038;-78
2023/05/14 05:17:41;;;;;;;15.70;11.60;;;10.40;99.90;;;-144.05;85.24;56872.19;4992188;28;20457;-76
2023/05/14 05:20:08;;;;;;;16.88;12.73;;;10.70;99.90;;;-144.05;84.54;56872.19;4992158;28;20026;-82
2023/05/14 05:22:35;;;;;;;16.17;10.60;;;10.90;99.90;;;-144.05;83.97;56870.06;4992126;28;20027;-77
2023/05/14 05:25:05;;;;;;;18.75;10.65;;;11.20;99.90;;;-144.05;83.41;56887.06;4974561;28;20105;-77
2023/05/14 05:27:32;;;;;;;13.20;10.50;;;11.40;99.90;;;-144.05;82.84;56872.19;4992134;28;20031;-78
2023/05/14 05:30:00;;;;;;;12.05;9.90;;;11.70;99.90;;;-144.05;82.13;56867.94;4993471;28;20097;-78
2023/05/14 05:32:26;;;;;;;13.60;10.60;;;11.80;99.90;;;-144.05;81.46;56878.56;4993787;28;20076;-77
2023/05/14 05:34:52;;;;;;;12.85;9.90;;;12.00;99.90;;;-144.05;80.57;56880.69;4992663;28;20034;-78
2023/05/14 05:37:18;;;;;;;15.50;10.40;;;12.00;99.90;;;-144.05;79.89;56878.56;4994080;28;20045;-78
2023/05/14 05:39:45;;;;;;;15.45;10.35;;;12.00;99.90;;;-144.05;79.52;56876.44;4993825;28;20030;-79
2023/05/14 05:42:10;;;;;;;16.58;11.40;;;11.90;99.90;;;-144.05;78.95;56906.19;4980034;28;20038;-80
2023/05/14 05:44:36;;;;;;;13.70;11.35;;;11.80;99.90;;;-144.05;78.36;56882.81;4980193;28;20038;-79
2023/05/14 05:47:02;;;;;;;13.82;12.10;;;11.70;99.90;;;-144.05;78.16;56880.69;4997216;28;20030;-78
2023/05/14 05:49:28;;;;;;;12.63;10.98;;;11.70;99.90;;;-144.05;77.96;56878.56;4997064;28;20446;-80
2023/05/14 05:51:54;;;;;;;13.85;11.15;;;11.80;99.90;;;-144.05;77.59;56899.81;4997239;28;20026;-79
2023/05/14 05:54:23;;;;;;;14.55;11.65;;;12.00;99.90;;;-144.05;77.00;56908.31;4979000;28;20398;-78
2023/05/14 05:56:50;;;;;;;14.20;11.57;;;12.20;99.90;;;-144.05;76.56;56867.94;4996886;28;20085;-79
2023/05/14 05:59:16;;;;;;;14.10;11.75;;;12.40;99.90;;;-144.05;75.65;56876.44;4978902;28;20026;-78
2023/05/14 06:01:42;;;;;;;17.48;12.90;;;12.70;99.90;;;-144.05;74.43;56891.31;4979016;28;20467;-78
2023/05/14 06:04:08;;;;;;;14.90;11.50;;;13.00;99.90;;;-144.05;72.98;56887.06;4978794;28;20038;-80
2023/05/14 06:06:34;;;;;;;12.93;10.95;;;13.40;99.90;;;-144.05;71.69;56878.56;4978539;28;20023;-77
2023/05/14 06:09:00;;;;;;;12.48;10.88;;;13.60;99.90;;;-144.05;70.68;56891.31;4996268;28;20551;-78
2023/05/14 06:11:27;;;;;;;14.40;10.25;;;13.90;99.90;;;-144.05;66.98;56882.81;4978733;28;20490;-79
2023/05/14 06:13:53;;;;;;;14.48;10.38;;;14.20;99.90;;;-144.05;67.50;56878.56;4996975;28;20120;-81
2023/05/14 06:16:19;;;;;;;12.68;9.38;;;14.30;99.90;;;-144.05;66.85;56893.44;4997660;28;20116;-82
2023/05/14 06:18:45;;;;;;;14.63;11.70;;;14.40;99.90;;;-144.05;66.34;56882.81;4980342;28;20446;-77
2023/05/14 06:21:11;;;;;;;13.70;10.48;;;14.60;99.90;;;-144.05;65.44;56882.81;4997376;28;20034;-81
2023/05/14 06:23:36;;;;;;;11.73;9.65;;;15.00;99.90;;;-144.05;64.22;56906.19;4996900;28;20096;-78
2023/05/14 06:26:03;;;;;;;12.05;9.82;;;15.30;99.90;;;-144.05;63.66;56912.56;4996873;28;20031;-78
2023/05/14 06:28:28;;;;;;;10.07;9.02;;;15.50;99.90;;;-144.05;62.32;56897.69;4996314;28;20022;-80
2023/05/14 06:30:54;;;;;;;13.80;9.65;;;15.80;99.90;;;-144.05;61.91;56895.56;4978803;28;20033;-80
2023/05/14 06:33:28;;;;;;;10.95;8.93;;;16.00;99.90;;;-144.05;60.67;56910.44;4995668;28;20058;-79
2023/05/14 06:35:54;;;;;;;15.20;9.15;;;16.30;99.90;;;-144.05;59.96;56923.19;4978691;28;20076;-79
2023/05/14 06:38:20;;;;;;;10.40;8.13;;;16.60;99.90;;;-144.05;59.21;56889.19;4995933;28;20217;-79
2023/05/14 06:40:46;;;;;;;11.27;9.45;;;16.70;99.90;;;-144.05;59.28;56884.94;4996238;28;20038;-77
2023/05/14 06:43:11;;;;;;;9.48;7.97;;;17.00;99.90;;;-144.05;57.83;56918.94;4995930;28;20034;-78
2023/05/14 06:45:37;;;;;;;14.88;7.55;;;17.00;99.90;;;-144.05;57.04;56925.28;4981738;28;20053;-80
2023/05/14 06:48:04;;;;;;;11.23;7.03;;;17.20;99.90;;;-144.05;55.53;56916.81;4983313;28;20061;-80
2023/05/14 06:50:29;;;;;;;9.07;7.05;;;17.30;99.90;;;-144.05;54.97;56935.91;4997954;28;20161;-76
2023/05/14 06:52:55;;;;;;;10.43;6.90;;;17.60;99.90;;;-144.05;54.15;56923.19;4995506;28;20065;-78
2023/05/14 06:55:21;;;;;;;8.27;5.85;;;17.60;99.90;;;-144.05;53.84;56904.06;4977399;28;20557;-78
2023/05/14 06:57:47;;;;;;;9.00;7.05;;;17.90;99.90;;;-144.05;52.24;56923.19;4977559;28;20034;-79
2023/05/14 07:00:14;;;;;;;17.13;7.38;;;18.00;99.90;;;-144.05;52.41;56916.81;4995086;28;20057;-79
2023/05/14 07:02:40;;;;;;;7.93;6.60;;;18.20;99.90;;;-144.05;51.73;56914.69;4996443;28;20114;-79
2023/05/14 07:05:07;;;;;;;11.70;6.13;;;18.30;99.90;;;-144.05;52.61;56923.19;4978081;28;20122;-78
2023/05/14 07:07:33;;;;;;;9.93;5.95;;;18.30;99.90;;;-144.05;50.53;56910.44;4995701;28;20402;-79
2023/05/14 07:09:59;;;;;;;14.40;6.72;;;18.50;99.90;;;-144.05;50.82;56923.19;4978414;28;20034;-78
2023/05/14 07:12:24;;;;;;;8.73;5.00;;;18.60;99.90;;;-144.05;49.73;56921.06;4977742;28;20034;-79
2023/05/14 07:14:50;;;;;;;6.43;5.43;;;18.80;99.90;;;-144.05;47.76;56942.28;4994707;28;20049;-78
2023/05/14 07:17:16;;;;;;;7.97;5.50;;;18.80;99.90;;;-144.05;48.39;56942.28;4978109;28;20505;-74
2023/05/14 07:19:42;;;;;;;6.82;4.88;;;18.80;99.90;;;-144.05;47.82;56935.91;4995768;28;20030;-77
2023/05/14 07:22:08;;;;;;;8.23;5.00;;;18.80;99.90;;;-144.05;47.81;56938.03;4978738;28;20034;-77
2023/05/14 07:24:34;;;;;;;6.63;4.60;;;19.00;99.90;;;-144.05;46.74;56946.53;4978337;28;20493;-77
2023/05/14 07:27:00;;;;;;;5.35;4.40;;;19.20;99.90;;;-144.05;45.73;56940.16;4996593;28;20026;-76
2023/05/14 07:29:27;;;;;;;5.20;4.28;;;19.10;99.90;;;-144.05;46.28;56935.91;4996844;28;20425;-80
2023/05/14 07:31:52;;;;;;;4.28;3.88;;;19.40;99.90;;;-144.05;45.30;56938.03;4977629;28;20130;-78
2023/05/14 07:34:18;;;;;;;4.80;3.78;;;19.80;99.90;;;-144.05;44.48;56940.16;4979438;28;20117;-79
2023/05/14 07:36:45;;;;;;;5.53;4.03;;;20.00;99.90;;;-144.05;42.29;56957.16;4978974;28;20065;-78
2023/05/14 07:39:11;;;;;;;5.90;3.80;;;20.20;99.90;;;-144.05;42.50;56963.53;4996267;28;20038;-79
2023/05/14 07:41:37;;;;;;;5.82;3.83;;;20.10;99.90;;;-144.05;42.04;56950.78;4995616;28;20038;-76
2023/05/14 07:44:03;;;;;;;5.85;3.70;;;20.20;99.90;;;-144.05;42.81;56965.66;4996437;28;20025;-75
2023/05/14 07:46:29;;;;;;;4.50;3.47;;;20.60;99.90;;;-144.05;39.97;56959.28;4995847;28;20026;-78
2023/05/14 07:48:55;;;;;;;3.63;3.15;;;20.50;99.90;;;-144.05;40.08;56959.28;4995320;28;20402;-75
2023/05/14 07:51:21;;;;;;;4.97;3.65;;;20.70;99.90;;;-144.05;39.21;56959.28;4995328;28;20110;-75
2023/05/14 07:53:47;;;;;;;5.05;3.75;;;20.90;99.90;;;-144.05;38.25;56972.03;4995804;28;20029;-75
2023/05/14 07:56:13;;;;;;;6.00;3.58;;;21.00;99.90;;;-144.05;38.44;56965.66;4977754;28;20023;-77
2023/05/14 07:58:39;;;;;;;4.97;3.50;;;20.90;99.90;;;-144.05;38.80;56967.78;4995284;28;20494;-76
2023/05/14 08:01:07;;;;;;;6.45;3.92;;;20.90;99.90;;;-144.05;39.64;56944.41;4995149;28;20022;-78
2023/05/14 08:03:33;;;;;;;5.72;3.70;;;21.00;99.90;;;-144.05;39.34;56944.41;4993995;28;20037;-77
2023/05/14 08:05:59;;;;;;;5.88;3.40;;;21.00;99.90;;;-144.05;39.57;56965.66;4995290;28;20080;-76
2023/05/14 08:08:26;;;;;;;4.43;3.60;;;21.20;99.90;;;-144.05;38.01;56965.66;4994964;28;20100;-77
2023/05/14 08:10:52;;;;;;;4.18;3.38;;;21.00;99.90;;;-144.05;39.03;56942.28;4994293;28;20018;-77
2023/05/14 08:13:18;;;;;;;4.68;3.20;;;20.90;99.90;;;-144.05;38.58;56986.91;4994488;28;20165;-76
2023/05/14 08:15:43;;;;;;;4.05;3.13;;;21.10;99.90;;;-144.05;37.63;56989.00;4994768;28;20109;-76
2023/05/14 08:18:09;;;;;;;4.38;2.95;;;21.50;99.90;;;-144.05;37.01;56991.13;4977626;28;20049;-78
2023/05/14 08:20:35;;;;;;;3.58;3.05;;;21.60;99.90;;;-144.05;36.83;56991.13;4995613;28;20065;-80
2023/05/14 08:23:01;;;;;;;4.88;2.60;;;21.80;99.90;;;-144.05;36.56;56986.91;4994711;28;20037;-79
2023/05/14 08:25:27;;;;;;;4.65;2.65;;;21.60;99.90;;;-144.05;36.67;56967.78;4995717;28;20533;-78
2023/05/14 08:27:53;;;;;;;3.28;2.80;;;22.00;99.90;;;-144.05;36.43;56980.53;4979505;28;20022;-78
2023/05/14 08:30:20;;;;;;;3.33;2.90;;;22.00;99.90;;;-144.05;35.78;56982.66;4978577;28;20026;-77
2023/05/14 08:32:46;;;;;;;3.17;2.70;;;22.10;99.90;;;-144.05;35.59;56980.53;4978675;28;20042;-78
2023/05/14 08:35:12;;;;;;;4.13;2.38;;;22.10;99.90;;;-144.05;36.04;56993.25;4995561;28;20053;-78
2023/05/14 08:37:38;;;;;;;2.47;2.28;;;21.80;99.50;;;-144.05;34.95;56984.78;4995585;28;20054;-78
2023/05/14 08:40:06;;;;;;;2.97;2.30;;;22.00;99.10;;;-144.05;34.68;56993.25;4995143;28;20034;-77
2023/05/14 08:42:33;;;;;;;2.55;2.33;;;22.30;98.40;;;-144.05;35.30;57023.00;4994617;28;20422;-76
2023/05/14 08:45:06;;;;;;;2.53;2.30;;;22.60;99.90;;;-144.05;34.43;57025.13;4994814;28;20037;-77
2023/05/14 08:47:33;;;;;;;6.00;2.70;;;22.80;98.40;;;-144.05;33.73;57001.75;4977374;28;20026;-77
2023/05/14 08:50:07;;;;;;;4.40;2.40;;;22.70;96.30;;;-144.05;33.75;56989.00;4995206;28;20117;-82
2023/05/14 08:52:34;;;;;;;2.90;2.17;;;22.90;95.90;;;-144.05;33.76;56989.00;4980639;28;20026;-78
2023/05/14 08:55:04;;;;;;;2.80;2.50;;;22.80;95.20;;;-144.05;33.36;57027.25;4978441;28;20065;-81
2023/05/14 08:57:35;;;;;;;4.32;2.33;;;22.90;93.90;;;-144.05;33.30;57003.88;4995806;28;20105;-79
2023/05/14 09:00:12;;;;;;;2.78;2.50;;;23.00;93.70;;;-144.05;33.43;56991.13;4995607;28;20068;-78
2023/05/14 09:02:43;;;;;;;2.80;2.55;;;22.70;93.90;;;-144.05;33.51;56972.03;4994983;28;20038;-78
2023/05/14 09:05:09;;;;;;;2.67;2.08;;;22.30;92.00;;;-144.05;33.96;57001.75;4993474;28;20034;-78
2023/05/14 09:07:36;;;;;;;2.50;2.30;;;22.40;93.60;;;-144.05;34.18;57008.13;4977108;28;20031;-79
2023/05/14 09:10:03;;;;;;;4.95;2.25;;;22.50;93.80;;;-144.05;33.37;57001.75;4996173;28;20153;-80
2023/05/14 09:12:29;;;;;;;2.47;2.28;;;22.70;92.70;;;-144.05;33.33;57020.88;4976789;28;20026;-80
2023/05/14 09:14:55;;;;;;;2.95;1.98;;;23.00;92.80;;;-144.05;32.53;57059.09;4997247;28;20034;-76
2023/05/14 09:17:26;;;;;;;2.35;2.05;;;23.40;91.80;;;-144.05;30.87;57052.75;4999035;28;20120;-76
2023/05/14 09:19:53;;;;;;;2.42;2.10;;;23.70;88.60;;;-144.05;32.26;57014.50;4999760;28;20505;-79
2023/05/14 09:22:21;;;;;;;2.92;1.90;;;23.40;88.20;;;-144.05;31.46;57016.63;4997372;28;20031;-79
2023/05/14 09:25:04;;;;;;;4.15;2.03;;;23.40;86.30;;;-144.05;31.79;57031.50;4980897;28;20030;-79
2023/05/14 09:27:32;;;;;;;3.53;2.00;;;23.50;90.00;;;-144.05;31.67;57044.25;4998665;28;20390;-79
2023/05/14 09:30:11;;;;;;;2.17;1.67;;;23.60;88.70;;;-144.05;30.79;57067.59;4980104;28;20032;-77
2023/05/14 09:32:44;;;;;;;2.05;1.77;;;23.90;85.50;;;-144.05;29.45;57035.75;4980184;28;20045;-80
2023/05/14 09:35:28;;;;;;;3.30;1.55;;;24.00;79.60;;;-144.05;29.01;57046.38;4980358;28;20076;-79
2023/05/14 09:37:55;;;;;;;1.63;1.27;;;24.20;75.50;;;-144.05;29.38;57033.63;4980408;28;20124;-78
2023/05/14 09:40:23;;;;;;;1.55;1.20;;;23.80;75.30;;;-144.05;28.99;57048.50;4980242;28;20489;-77
2023/05/14 09:42:49;;;;;;;1.30;1.20;;;23.80;74.10;;;-144.05;29.92;57027.25;4979704;28;20527;-78
2023/05/14 09:45:16;;;;;;;1.30;1.20;;;23.80;77.60;;;-144.05;29.20;57067.59;4997888;28;20030;-79
2023/05/14 09:47:43;;;;;;;1.77;1.40;;;23.90;75.50;;;-144.05;30.19;57033.63;5003803;28;20037;-79
2023/05/14 09:50:10;;;;;;;1.73;1.60;;;23.90;77.70;;;-144.05;29.73;57086.72;4982088;28;20057;-79
2023/05/14 09:52:37;;;;;;;2.58;1.38;;;24.10;76.60;;;-144.05;28.73;57069.72;4998654;28;20034;-78
2023/05/14 09:55:04;;;;;;;1.77;1.40;;;24.30;72.50;;;-144.05;28.65;57059.09;4998298;28;20033;-77
2023/05/14 09:57:30;;;;;;;2.78;1.58;;;24.10;71.40;;;-144.05;29.77;57037.88;4997968;28;20116;-78
2023/05/14 09:59:56;;;;;;;2.80;1.50;;;24.20;74.20;;;-144.05;28.87;57073.97;4997868;28;20054;-79
2023/05/14 10:02:28;;;;;;;1.98;1.55;;;24.20;71.90;;;-144.05;29.27;57059.09;4980402;28;20035;-78